Airport ID:KRTS
Update Time (UTC):22/09/2018 09:19
Wind Speed (Knots):8
Wind Direction (Magnetic):130
Temperature (°C):16
Dew Point (°C):-4
Humidity (%):25
Altimeter (inHg):30.15
Density Altitude (Feet):6100
Visibility (Miles):10+
Clouds (Hundreds of feet):CLR
Present Weather:
METAR:METAR KRTS 220915Z AUTO 34006G13KT 10SM CLR 16/M04 A3015 RMK AO2

The data displayed is for advisory purposes only and is not to be used for flight planning or operations.

This page is not automatically refreshed. Reload the page to see current data.